Time;durP1;ratioP1;P1;durP2;ratioP2;P2;SDS_P1;SDS_P2;PMS_P1;PMS_P2;Temp;Humidity;BMP_temperature;BMP_pressure;BME280_temperature;BME280_humidity;BME280_pressure;Samples;Min_cycle;Max_cycle;Signal;HPM_P1;HPM_P2
2022/12/11 00:00:53;;;;;;;138.98;35.83;;;0.60;95.70;;;;;;5025331;28;20517;-90
2022/12/11 00:03:18;;;;;;;121.00;33.50;;;0.60;95.70;;;;;;5025056;28;20399;-90
2022/12/11 00:05:45;;;;;;;141.47;36.30;;;0.60;95.70;;;;;;5042716;28;20407;-90
2022/12/11 00:08:11;;;;;;;150.80;35.03;;;0.60;95.70;;;;;;5023808;28;20477;-90
2022/12/11 00:10:38;;;;;;;127.20;33.97;;;0.80;95.80;;;;;;5025689;28;20403;-90
2022/12/11 00:13:04;;;;;;;133.18;34.72;;;0.60;95.70;;;;;;5040538;28;20462;-89
2022/12/11 00:15:29;;;;;;;145.45;35.70;;;0.60;95.70;;;;;;5024900;28;20399;-89
2022/12/11 00:17:55;;;;;;;134.10;34.53;;;0.70;95.80;;;;;;5024916;28;20425;-90
2022/12/11 00:20:20;;;;;;;119.53;34.00;;;0.70;95.70;;;;;;5024188;28;20407;-91
2022/12/11 00:22:46;;;;;;;128.48;33.53;;;0.70;95.70;;;;;;5025326;28;20408;-90
2022/12/11 00:25:12;;;;;;;120.65;33.28;;;0.70;95.80;;;;;;5023874;28;20417;-90
2022/12/11 00:27:37;;;;;;;120.00;32.40;;;0.70;95.70;;;;;;5025523;28;20427;-90
2022/12/11 00:30:04;;;;;;;119.47;32.97;;;0.70;95.70;;;;;;5023815;28;20660;-89
2022/12/11 00:32:30;;;;;;;120.72;33.15;;;0.70;95.80;;;;;;5025133;28;20408;-89
2022/12/11 00:34:56;;;;;;;124.20;33.58;;;0.70;95.70;;;;;;5023921;28;20898;-89
2022/12/11 00:37:22;;;;;;;106.33;31.63;;;0.70;95.70;;;;;;5024601;28;20415;-90
2022/12/11 00:39:48;;;;;;;125.43;33.63;;;0.70;95.70;;;;;;5024720;28;20856;-89
2022/12/11 00:42:14;;;;;;;110.63;32.33;;;0.70;95.70;;;;;;5024391;28;20860;-89
2022/12/11 00:44:40;;;;;;;105.72;32.00;;;0.80;95.70;;;;;;5025354;28;20407;-90
2022/12/11 00:47:05;;;;;;;123.53;34.22;;;0.80;95.70;;;;;;5023689;28;20441;-90
2022/12/11 00:49:31;;;;;;;112.40;31.35;;;0.70;95.70;;;;;;5025220;28;20411;-91
2022/12/11 00:51:57;;;;;;;105.38;32.05;;;0.80;95.80;;;;;;5024028;28;20409;-89
2022/12/11 00:54:22;;;;;;;121.80;33.27;;;0.80;95.70;;;;;;5024760;28;20789;-91
2022/12/11 00:56:48;;;;;;;101.67;31.40;;;0.80;95.60;;;;;;5024861;28;20415;-90
2022/12/11 00:59:13;;;;;;;97.75;30.73;;;0.80;95.60;;;;;;5024896;28;20513;-89
2022/12/11 01:01:39;;;;;;;112.05;32.10;;;0.80;95.60;;;;;;5025100;28;20836;-89
2022/12/11 01:04:05;;;;;;;107.63;32.17;;;0.80;95.60;;;;;;5023610;28;20416;-89
2022/12/11 01:06:30;;;;;;;93.88;31.35;;;0.80;95.50;;;;;;5025289;28;20617;-89
2022/12/11 01:11:42;;;;;;;89.85;29.75;;;1.00;95.50;;;;;;5024943;28;20457;-89
2022/12/11 01:14:11;;;;;;;98.22;30.70;;;0.90;95.50;;;;;;5023881;28;20411;-90
2022/12/11 01:16:38;;;;;;;100.72;30.80;;;0.80;95.40;;;;;;5024357;28;20838;-90
2022/12/11 01:19:04;;;;;;;93.87;30.10;;;1.10;95.50;;;;;;5025173;28;20956;-90
2022/12/11 01:21:29;;;;;;;97.68;30.63;;;0.90;95.50;;;;;;5023174;28;20407;-88
2022/12/11 01:23:55;;;;;;;103.83;30.13;;;0.80;95.80;;;;;;5024976;28;20426;-90
2022/12/11 01:26:21;;;;;;;100.93;29.93;;;0.90;95.50;;;;;;5023500;28;20427;-90
2022/12/11 01:28:51;;;;;;;94.88;31.23;;;0.90;95.40;;;;;;5035918;28;20428;-91
2022/12/11 01:31:21;;;;;;;92.38;30.17;;;0.90;95.40;;;;;;5004881;28;20443;-89
2022/12/11 01:33:46;;;;;;;98.82;30.73;;;0.90;95.40;;;;;;5004329;28;20416;-90
2022/12/11 01:36:16;;;;;;;117.35;31.90;;;0.90;95.40;;;;;;5021272;28;20409;-90
2022/12/11 01:38:43;;;;;;;112.10;32.78;;;1.10;95.50;;;;;;5007088;28;20417;-89
2022/12/11 01:41:09;;;;;;;89.03;29.75;;;0.90;95.50;;;;;;5025002;28;20444;-89
2022/12/11 01:43:54;;;;;;;93.25;30.45;;;1.00;95.40;;;;;;5023929;28;20886;-89
2022/12/11 01:46:20;;;;;;;93.55;31.02;;;1.00;95.30;;;;;;5024885;28;20440;-90
2022/12/11 01:48:45;;;;;;;94.97;31.25;;;1.00;95.40;;;;;;5024472;28;20414;-89
2022/12/11 01:51:11;;;;;;;88.90;29.67;;;1.00;95.40;;;;;;5024236;28;20914;-91
2022/12/11 01:53:42;;;;;;;90.45;29.45;;;1.00;95.30;;;;;;5007728;28;20413;-90
2022/12/11 01:56:09;;;;;;;111.27;31.73;;;1.00;95.30;;;;;;5007398;28;20483;-90
2022/12/11 01:58:45;;;;;;;100.00;30.30;;;1.00;95.30;;;;;;5008763;28;20784;-90
2022/12/11 02:01:17;;;;;;;104.80;31.83;;;1.00;95.30;;;;;;5023788;28;20427;-89
2022/12/11 02:03:43;;;;;;;109.63;32.08;;;1.00;95.40;;;;;;5024538;28;20911;-90
2022/12/11 02:06:33;;;;;;;99.60;31.83;;;1.00;95.40;;;;;;5024591;28;20436;-89
2022/12/11 02:09:00;;;;;;;108.82;32.38;;;1.00;95.40;;;;;;5006785;28;20409;-90
2022/12/11 02:11:44;;;;;;;112.28;32.83;;;1.00;95.40;;;;;;5025157;28;20431;-92
2022/12/11 02:14:26;;;;;;;113.82;33.00;;;1.00;95.40;;;;;;5023324;28;20483;-90
2022/12/11 02:17:09;;;;;;;105.72;31.92;;;1.00;95.50;;;;;;5024160;28;20417;-92
2022/12/11 02:19:44;;;;;;;115.20;32.90;;;1.00;95.50;;;;;;5024335;28;20451;-89
2022/12/11 02:22:16;;;;;;;116.15;33.67;;;1.10;95.50;;;;;;5006858;28;20484;-88
2022/12/11 02:25:14;;;;;;;118.10;34.00;;;1.10;95.40;;;;;;5024638;28;20468;-88
2022/12/11 02:27:55;;;;;;;123.03;34.05;;;1.10;95.40;;;;;;5023724;28;20432;-88
2022/12/11 02:30:22;;;;;;;115.88;33.58;;;1.10;95.40;;;;;;5006992;28;20815;-89
2022/12/11 02:32:57;;;;;;;133.27;34.93;;;1.10;95.40;;;;;;5007733;28;20775;-88
2022/12/11 02:35:30;;;;;;;113.07;33.45;;;1.10;95.40;;;;;;5005470;28;20486;-89
2022/12/11 02:38:02;;;;;;;124.05;34.78;;;1.10;95.40;;;;;;5024189;28;20456;-88
2022/12/11 02:40:33;;;;;;;128.18;34.90;;;1.10;95.40;;;;;;5006203;28;20455;-88
2022/12/11 02:43:04;;;;;;;133.02;35.53;;;1.10;95.40;;;;;;5023838;28;20428;-89
2022/12/11 02:45:31;;;;;;;134.27;34.78;;;1.10;95.40;;;;;;5023519;28;20490;-89
2022/12/11 02:48:01;;;;;;;138.17;35.33;;;1.10;95.40;;;;;;5022273;28;20542;-90
2022/12/11 02:50:29;;;;;;;135.90;35.73;;;1.20;95.50;;;;;;5023867;28;20419;-88
2022/12/11 02:52:56;;;;;;;139.10;36.50;;;1.10;95.50;;;;;;5005989;28;20427;-88
2022/12/11 02:55:23;;;;;;;143.00;36.75;;;1.10;95.50;;;;;;5024249;28;20796;-89
2022/12/11 02:57:58;;;;;;;131.27;35.65;;;1.20;95.50;;;;;;5022224;28;20408;-89
2022/12/11 03:00:24;;;;;;;125.78;34.92;;;1.20;95.40;;;;;;5023033;28;20405;-90
2022/12/11 03:02:49;;;;;;;127.73;35.57;;;1.20;95.40;;;;;;5006346;28;20496;-88
2022/12/11 03:05:15;;;;;;;142.17;35.37;;;1.20;95.40;;;;;;5006047;28;20401;-89
2022/12/11 03:07:43;;;;;;;166.07;36.60;;;1.20;95.40;;;;;;5006510;28;20443;-89
2022/12/11 03:10:13;;;;;;;147.07;36.05;;;1.20;95.40;;;;;;5005241;28;20959;-89
2022/12/11 03:12:42;;;;;;;132.23;34.40;;;1.20;95.50;;;;;;5007182;28;20411;-88
2022/12/11 03:15:12;;;;;;;134.10;35.58;;;1.20;95.40;;;;;;5005502;28;20405;-89
2022/12/11 03:17:53;;;;;;;145.98;35.60;;;1.20;95.50;;;;;;5006711;28;20780;-89
2022/12/11 03:21:14;;;;;;;154.52;36.38;;;1.20;95.50;;;;;;5006741;28;20463;-88
2022/12/11 03:24:06;;;;;;;142.80;34.88;;;1.20;95.50;;;;;;4973877;28;20413;-88
2022/12/11 03:26:37;;;;;;;161.75;36.92;;;1.20;95.50;;;;;;5022650;28;20803;-89
2022/12/11 03:29:32;;;;;;;146.02;35.20;;;1.20;95.50;;;;;;5005963;28;20416;-88
2022/12/11 03:32:10;;;;;;;146.93;35.97;;;1.20;95.50;;;;;;5002757;28;20409;-89
2022/12/11 03:34:43;;;;;;;134.23;33.88;;;1.20;95.50;;;;;;5023387;28;20413;-89
2022/12/11 03:37:10;;;;;;;141.15;34.85;;;1.20;95.40;;;;;;5021854;28;20409;-87
2022/12/11 03:39:40;;;;;;;138.70;35.00;;;1.20;95.40;;;;;;5021925;28;20412;-89
2022/12/11 03:42:10;;;;;;;138.00;34.72;;;1.20;95.50;;;;;;5022501;28;20424;-89
2022/12/11 03:44:36;;;;;;;130.00;33.22;;;1.20;95.50;;;;;;5005165;28;20408;-88
2022/12/11 03:47:06;;;;;;;142.10;34.75;;;1.20;95.50;;;;;;5006769;28;20482;-89
2022/12/11 03:49:37;;;;;;;138.43;33.88;;;1.20;95.50;;;;;;5004509;28;21057;-89
2022/12/11 03:52:04;;;;;;;155.00;35.67;;;1.20;95.50;;;;;;5005879;28;20405;-89
2022/12/11 03:54:31;;;;;;;133.20;34.47;;;1.20;95.50;;;;;;5021575;28;20408;-88
2022/12/11 03:57:00;;;;;;;132.02;34.60;;;1.20;95.50;;;;;;5021937;28;20455;-89
2022/12/11 03:59:26;;;;;;;143.73;34.38;;;1.30;95.50;;;;;;5005347;28;20503;-90
2022/12/11 04:01:51;;;;;;;130.27;33.88;;;1.20;95.40;;;;;;5004768;28;20501;-89
2022/12/11 04:04:17;;;;;;;158.40;35.13;;;1.20;95.40;;;;;;5022575;28;20428;-89
2022/12/11 04:06:43;;;;;;;128.00;33.20;;;1.20;95.40;;;;;;5004438;28;20435;-90
2022/12/11 04:09:08;;;;;;;155.47;35.50;;;1.20;95.40;;;;;;5022386;28;20508;-90
2022/12/11 04:11:34;;;;;;;149.25;34.88;;;1.20;95.40;;;;;;5021277;28;20489;-89
2022/12/11 04:16:46;;;;;;;150.02;35.20;;;1.30;95.50;;;;;;5005691;28;20413;-89
2022/12/11 04:24:40;;;;;;;140.35;33.70;;;1.30;95.50;;;;;;5005135;28;20523;-90
2022/12/11 04:27:05;;;;;;;143.87;34.47;;;1.30;95.50;;;;;;5004946;28;20515;-89
2022/12/11 04:29:31;;;;;;;131.37;33.97;;;1.20;95.50;;;;;;5021680;28;20409;-89
2022/12/11 04:31:57;;;;;;;136.82;34.63;;;1.30;95.50;;;;;;5020966;28;20413;-89
2022/12/11 04:34:22;;;;;;;140.63;35.53;;;1.20;95.40;;;;;;5022553;28;20489;-89
2022/12/11 04:36:48;;;;;;;134.30;34.57;;;1.30;95.50;;;;;;5020628;28;20428;-90
2022/12/11 04:39:14;;;;;;;123.32;32.70;;;1.30;95.40;;;;;;5022137;28;20401;-89
2022/12/11 04:41:40;;;;;;;152.18;35.38;;;1.30;95.40;;;;;;5020741;28;20455;-90
2022/12/11 04:44:06;;;;;;;134.10;34.47;;;1.30;95.50;;;;;;5005326;28;20821;-89
2022/12/11 04:46:32;;;;;;;150.07;36.23;;;1.30;95.50;;;;;;5021087;28;20484;-89
2022/12/11 04:48:59;;;;;;;143.33;35.03;;;1.50;95.50;;;;;;5004549;28;20412;-90
2022/12/11 04:51:28;;;;;;;150.55;35.17;;;1.30;95.40;;;;;;5005513;28;20405;-90
2022/12/11 04:53:54;;;;;;;137.48;35.22;;;1.30;95.50;;;;;;5020770;28;20400;-89
2022/12/11 04:56:20;;;;;;;147.70;35.60;;;1.30;95.40;;;;;;5006041;28;20844;-90
2022/12/11 04:58:46;;;;;;;143.70;35.60;;;1.30;95.40;;;;;;5003862;28;20412;-89
2022/12/11 05:01:15;;;;;;;141.48;35.35;;;1.30;95.40;;;;;;5005806;28;20986;-90
2022/12/11 05:03:41;;;;;;;155.45;36.33;;;1.30;95.40;;;;;;5004759;28;20906;-91
2022/12/11 05:06:08;;;;;;;138.10;34.95;;;1.30;95.40;;;;;;5021187;28;20412;-89
2022/12/11 05:08:36;;;;;;;149.75;36.75;;;1.30;95.40;;;;;;5004934;28;20420;-89
2022/12/11 05:11:05;;;;;;;162.13;36.60;;;1.30;95.50;;;;;;5004341;28;20431;-88
2022/12/11 05:13:31;;;;;;;167.70;37.42;;;1.30;95.40;;;;;;5008907;28;20441;-89
2022/12/11 05:15:57;;;;;;;133.27;35.28;;;1.30;95.50;;;;;;5007410;28;20420;-90
2022/12/11 05:18:23;;;;;;;151.80;36.60;;;1.30;95.40;;;;;;5025821;28;20714;-90
2022/12/11 05:20:57;;;;;;;134.45;35.35;;;1.30;95.40;;;;;;5024543;28;20491;-88
2022/12/11 05:23:23;;;;;;;157.27;37.83;;;1.30;95.50;;;;;;5008469;28;20423;-89
2022/12/11 05:25:56;;;;;;;132.15;36.58;;;1.30;95.40;;;;;;5024953;28;20492;-89
2022/12/11 05:28:24;;;;;;;124.50;34.75;;;1.30;95.40;;;;;;5024112;28;20435;-89
2022/12/11 05:31:01;;;;;;;157.77;37.40;;;1.30;95.40;;;;;;5025339;28;20417;-90
2022/12/11 05:33:27;;;;;;;145.10;36.50;;;1.30;95.40;;;;;;5024005;28;20492;-90
2022/12/11 05:35:53;;;;;;;133.52;35.72;;;1.30;95.40;;;;;;5024861;28;21281;-89
2022/12/11 05:38:19;;;;;;;145.70;36.83;;;1.30;95.50;;;;;;5023952;28;20448;-89
2022/12/11 05:41:00;;;;;;;129.30;36.55;;;1.30;95.40;;;;;;5023825;28;21481;-91
2022/12/11 05:43:27;;;;;;;126.90;35.58;;;1.30;95.40;;;;;;5024990;28;20479;-88
2022/12/11 05:45:53;;;;;;;133.85;34.58;;;1.30;95.40;;;;;;5023686;28;20409;-90
2022/12/11 05:48:19;;;;;;;134.30;35.28;;;1.30;95.40;;;;;;5025149;28;20425;-89
2022/12/11 05:50:56;;;;;;;136.40;36.72;;;1.30;95.30;;;;;;5006832;28;20445;-89
2022/12/11 05:53:21;;;;;;;119.90;34.83;;;1.30;95.40;;;;;;5008404;28;20431;-90
2022/12/11 05:55:47;;;;;;;144.50;35.20;;;1.20;95.30;;;;;;5007218;28;20401;-89
2022/12/11 05:58:12;;;;;;;116.40;33.47;;;1.30;95.40;;;;;;5024462;28;20471;-89
2022/12/11 06:00:41;;;;;;;128.82;34.45;;;1.30;95.30;;;;;;5024511;28;20413;-89
2022/12/11 06:03:06;;;;;;;129.52;35.03;;;1.30;95.30;;;;;;5006915;28;20488;-89
2022/12/11 06:05:37;;;;;;;125.80;33.88;;;1.20;95.30;;;;;;5024573;28;20978;-89
2022/12/11 06:08:03;;;;;;;112.05;33.53;;;1.30;95.40;;;;;;5023135;28;20436;-89
2022/12/11 06:10:29;;;;;;;116.95;33.47;;;1.20;95.40;;;;;;5007648;28;20757;-89
2022/12/11 06:12:54;;;;;;;121.60;34.00;;;1.20;95.30;;;;;;5022780;28;20930;-88
2022/12/11 06:15:21;;;;;;;120.20;34.17;;;1.60;95.50;;;;;;5023326;28;20417;-90
2022/12/11 06:17:46;;;;;;;119.32;34.53;;;1.30;95.30;;;;;;5007468;28;20412;-88
2022/12/11 06:20:12;;;;;;;110.27;32.90;;;1.30;95.40;;;;;;5006393;28;20417;-89
2022/12/11 06:22:37;;;;;;;111.53;32.37;;;1.30;95.30;;;;;;5005706;28;20787;-88
2022/12/11 06:25:04;;;;;;;118.47;32.75;;;1.30;95.30;;;;;;5004324;28;20469;-88
2022/12/11 06:27:29;;;;;;;113.80;31.20;;;1.30;95.30;;;;;;5005655;28;20425;-89
2022/12/11 06:29:56;;;;;;;113.20;31.80;;;1.30;95.30;;;;;;5003572;28;20467;-89
2022/12/11 06:32:21;;;;;;;104.30;31.67;;;1.40;95.30;;;;;;5006163;28;20408;-89
2022/12/11 06:34:47;;;;;;;110.20;32.57;;;1.50;95.40;;;;;;5005513;28;20413;-89
2022/12/11 06:37:13;;;;;;;114.60;32.90;;;1.20;95.40;;;;;;5006283;28;20479;-89
2022/12/11 06:39:38;;;;;;;113.72;34.22;;;1.20;95.30;;;;;;5005815;28;20445;-89
2022/12/11 06:42:04;;;;;;;120.88;33.85;;;1.20;95.30;;;;;;5006294;28;20971;-89
2022/12/11 06:44:29;;;;;;;107.50;33.03;;;1.30;95.30;;;;;;5005266;28;20915;-88
2022/12/11 06:46:55;;;;;;;109.03;32.90;;;1.20;95.30;;;;;;4996825;28;20470;-90
2022/12/11 06:49:21;;;;;;;113.45;33.53;;;1.30;95.30;;;;;;5007283;28;20939;-89
2022/12/11 06:51:46;;;;;;;104.82;33.00;;;1.30;95.30;;;;;;5005058;28;20459;-90
2022/12/11 06:54:12;;;;;;;115.37;33.13;;;1.30;95.30;;;;;;5006379;28;20408;-90
2022/12/11 06:56:38;;;;;;;118.43;34.00;;;1.30;95.30;;;;;;5005632;28;20409;-90
2022/12/11 06:59:04;;;;;;;115.07;35.40;;;1.40;95.40;;;;;;5022229;28;20471;-89
2022/12/11 07:01:30;;;;;;;114.87;35.93;;;1.30;95.40;;;;;;5006043;28;20480;-89
2022/12/11 07:03:57;;;;;;;119.65;35.33;;;1.30;95.40;;;;;;5005994;28;20596;-90
2022/12/11 07:06:24;;;;;;;116.97;35.00;;;1.30;95.40;;;;;;5006931;28;20400;-90
2022/12/11 07:08:50;;;;;;;115.07;34.35;;;1.30;95.40;;;;;;5006320;28;20483;-90
2022/12/11 07:11:17;;;;;;;128.15;36.20;;;1.30;95.40;;;;;;5026591;28;20411;-89
2022/12/11 07:13:43;;;;;;;107.97;33.65;;;1.30;95.30;;;;;;5024702;28;20403;-89
2022/12/11 07:16:10;;;;;;;122.75;36.10;;;1.30;95.30;;;;;;5025552;28;20473;-89
2022/12/11 07:18:41;;;;;;;109.03;35.15;;;1.30;95.30;;;;;;5025140;28;20430;-90
2022/12/11 07:21:10;;;;;;;103.77;34.13;;;1.30;95.30;;;;;;5010417;28;20500;-90
2022/12/11 07:23:36;;;;;;;114.50;35.57;;;1.30;95.30;;;;;;5005601;28;20409;-90
2022/12/11 07:26:07;;;;;;;112.32;35.03;;;1.30;95.30;;;;;;5004586;28;20405;-89
2022/12/11 07:28:33;;;;;;;118.18;35.63;;;1.30;95.20;;;;;;4989703;28;20435;-90
2022/12/11 07:31:03;;;;;;;112.88;34.25;;;1.30;95.40;;;;;;5004978;28;21151;-90
2022/12/11 07:33:28;;;;;;;101.87;32.90;;;1.40;95.40;;;;;;5005831;28;20803;-89
2022/12/11 07:35:54;;;;;;;104.00;33.07;;;1.30;95.30;;;;;;5004696;28;20409;-88
2022/12/11 07:38:19;;;;;;;93.85;31.27;;;1.40;95.20;;;;;;5005132;28;21088;-89
2022/12/11 07:40:45;;;;;;;107.50;32.67;;;1.30;95.20;;;;;;4989116;28;20428;-89
2022/12/11 07:43:11;;;;;;;99.77;32.57;;;1.30;95.10;;;;;;5001529;28;20431;-89
2022/12/11 07:45:37;;;;;;;113.90;33.30;;;1.40;95.20;;;;;;5039181;28;20915;-89
2022/12/11 07:48:02;;;;;;;112.00;33.92;;;1.30;95.20;;;;;;5005616;28;20434;-89
2022/12/11 07:50:31;;;;;;;118.78;34.47;;;1.30;95.10;;;;;;4969935;28;20490;-89
2022/12/11 07:52:57;;;;;;;117.00;34.20;;;1.30;95.20;;;;;;4984865;28;20430;-90
2022/12/11 07:55:22;;;;;;;126.63;35.03;;;1.40;95.20;;;;;;4969291;28;20426;-89
2022/12/11 07:57:48;;;;;;;124.20;36.00;;;1.40;95.30;;;;;;4985775;28;20798;-90
2022/12/11 08:00:28;;;;;;;123.90;35.30;;;1.40;95.30;;;;;;4968525;28;20420;-89
2022/12/11 08:02:54;;;;;;;131.02;36.70;;;1.30;95.30;;;;;;4993188;28;20514;-89
2022/12/11 08:05:20;;;;;;;122.90;35.83;;;1.40;95.40;;;;;;4977403;28;20494;-90
2022/12/11 08:07:46;;;;;;;126.53;35.73;;;1.40;95.30;;;;;;4983474;28;20450;-88
2022/12/11 08:10:11;;;;;;;136.63;37.10;;;1.40;95.30;;;;;;4974625;28;20426;-89
2022/12/11 08:12:37;;;;;;;138.67;37.67;;;1.40;95.40;;;;;;5028798;28;20553;-89
2022/12/11 08:15:04;;;;;;;128.73;36.53;;;1.30;95.30;;;;;;5033632;28;20406;-88
2022/12/11 08:17:29;;;;;;;127.50;36.63;;;1.40;95.30;;;;;;5034287;28;20405;-89
2022/12/11 08:19:55;;;;;;;132.67;36.60;;;1.40;95.20;;;;;;4994156;28;20419;-89
2022/12/11 08:22:21;;;;;;;123.43;36.67;;;1.40;95.30;;;;;;4979725;28;20467;-88
2022/12/11 08:24:46;;;;;;;129.48;37.15;;;1.40;95.30;;;;;;4997984;28;20409;-89
2022/12/11 08:27:12;;;;;;;133.27;37.30;;;1.40;95.30;;;;;;4991592;28;20437;-88
2022/12/11 08:29:37;;;;;;;136.10;37.23;;;1.40;95.30;;;;;;4977351;28;20416;-89
2022/12/11 08:32:03;;;;;;;140.40;38.03;;;1.40;95.30;;;;;;4995978;28;20441;-89
2022/12/11 08:34:29;;;;;;;134.43;37.83;;;1.40;95.40;;;;;;4978073;28;20456;-89
2022/12/11 08:36:54;;;;;;;135.00;37.42;;;1.40;95.40;;;;;;5030694;28;20409;-90
2022/12/11 08:39:24;;;;;;;146.67;39.77;;;1.40;95.30;;;;;;5003117;28;20454;-89
2022/12/11 08:41:49;;;;;;;138.27;37.70;;;1.40;95.30;;;;;;5026941;28;20412;-89
2022/12/11 08:44:15;;;;;;;126.55;36.63;;;1.50;95.40;;;;;;4988945;28;20898;-88
2022/12/11 08:46:41;;;;;;;127.63;37.63;;;1.60;95.40;;;;;;5032007;28;20428;-89
2022/12/11 08:49:08;;;;;;;121.97;36.13;;;1.40;95.20;;;;;;5019031;28;20409;-89
2022/12/11 08:51:34;;;;;;;131.02;36.83;;;1.40;95.20;;;;;;5004890;28;20405;-88
2022/12/11 08:54:00;;;;;;;133.67;38.23;;;1.40;95.20;;;;;;5012682;28;21191;-88
2022/12/11 08:56:28;;;;;;;126.47;37.72;;;1.50;95.30;;;;;;5034818;28;20412;-90
2022/12/11 08:58:54;;;;;;;131.47;38.27;;;1.40;95.30;;;;;;5012747;28;20461;-88
2022/12/11 09:01:22;;;;;;;135.98;38.65;;;1.50;95.20;;;;;;4993562;28;20410;-88
2022/12/11 09:03:49;;;;;;;135.95;38.60;;;1.50;95.20;;;;;;5032873;28;20412;-89
2022/12/11 09:06:18;;;;;;;131.90;38.13;;;1.50;95.30;;;;;;5028272;28;20776;-89
2022/12/11 09:08:45;;;;;;;147.30;39.65;;;1.50;95.30;;;;;;4984485;28;20416;-89
2022/12/11 09:11:14;;;;;;;141.07;39.15;;;1.50;95.40;;;;;;5009511;28;20481;-88
2022/12/11 09:13:40;;;;;;;143.68;40.22;;;1.50;95.30;;;;;;5000473;28;20459;-89
2022/12/11 09:16:08;;;;;;;133.50;38.15;;;1.50;95.30;;;;;;4977428;28;20417;-90
2022/12/11 09:18:35;;;;;;;140.90;39.87;;;1.50;95.30;;;;;;4978849;28;20805;-89
2022/12/11 09:21:07;;;;;;;139.63;39.78;;;1.50;95.20;;;;;;4977155;28;20406;-88
2022/12/11 09:23:33;;;;;;;144.37;38.60;;;1.50;95.30;;;;;;4978963;28;20493;-88
2022/12/11 09:25:59;;;;;;;140.50;38.93;;;1.50;95.30;;;;;;5018391;28;20416;-89
2022/12/11 09:28:25;;;;;;;145.80;40.13;;;1.60;95.30;;;;;;5030283;28;20476;-89
2022/12/11 09:30:51;;;;;;;133.23;38.17;;;1.70;95.30;;;;;;4998995;28;20407;-89
2022/12/11 09:33:16;;;;;;;140.40;40.30;;;1.60;95.20;;;;;;5031313;28;20401;-88
2022/12/11 09:35:43;;;;;;;147.07;39.63;;;1.60;95.20;;;;;;5032138;28;20413;-89
2022/12/11 09:38:09;;;;;;;133.38;38.92;;;1.60;95.30;;;;;;4985238;28;20777;-88
2022/12/11 09:40:40;;;;;;;128.05;38.53;;;1.70;95.20;;;;;;5016321;28;20427;-89
2022/12/11 09:43:14;;;;;;;136.07;39.78;;;1.70;95.10;;;;;;4993137;28;20553;-88
2022/12/11 09:45:40;;;;;;;113.57;36.42;;;1.80;95.20;;;;;;4994717;28;20479;-88
2022/12/11 09:48:08;;;;;;;121.20;39.15;;;1.70;95.10;;;;;;4999411;28;20499;-89
2022/12/11 09:50:34;;;;;;;144.75;39.42;;;1.70;95.00;;;;;;5031557;28;20405;-89
2022/12/11 09:53:25;;;;;;;127.25;39.72;;;1.70;95.00;;;;;;5029689;28;20745;-89
2022/12/11 09:55:54;;;;;;;117.43;38.05;;;1.80;95.10;;;;;;5000990;28;20478;-87
2022/12/11 09:58:38;;;;;;;128.30;40.55;;;2.00;95.10;;;;;;5032013;28;20449;-90
2022/12/11 10:01:22;;;;;;;126.18;38.92;;;1.80;95.10;;;;;;4994323;28;20428;-88
2022/12/11 10:04:06;;;;;;;117.05;37.67;;;1.80;94.90;;;;;;4994515;28;20433;-88
2022/12/11 10:06:45;;;;;;;120.07;38.03;;;1.80;94.90;;;;;;4999584;28;20989;-88
2022/12/11 10:09:35;;;;;;;115.93;38.15;;;1.90;95.00;;;;;;5029112;28;20417;-89
2022/12/11 10:12:13;;;;;;;124.93;39.60;;;1.90;94.90;;;;;;4996338;28;20426;-89
2022/12/11 10:15:09;;;;;;;125.50;38.63;;;1.90;94.90;;;;;;5011708;28;20833;-88
2022/12/11 10:17:37;;;;;;;131.65;39.75;;;1.90;95.00;;;;;;4973737;28;20417;-88
2022/12/11 10:20:27;;;;;;;120.20;38.60;;;1.90;95.00;;;;;;4996528;28;20405;-89
2022/12/11 10:22:55;;;;;;;116.35;38.53;;;1.90;95.00;;;;;;4980889;28;20417;-88
2022/12/11 10:25:39;;;;;;;114.67;38.77;;;2.00;95.00;;;;;;5035996;28;20452;-89
2022/12/11 10:28:12;;;;;;;120.10;39.28;;;1.90;94.90;;;;;;5031058;28;20504;-90
2022/12/11 10:30:45;;;;;;;104.20;37.23;;;2.00;94.90;;;;;;4997910;28;20816;-89
2022/12/11 10:33:25;;;;;;;108.82;36.17;;;2.00;94.70;;;;;;4977561;28;20425;-87
2022/12/11 10:35:55;;;;;;;120.68;38.40;;;2.00;94.70;;;;;;4977816;28;20787;-88
2022/12/11 10:38:33;;;;;;;108.65;37.53;;;2.00;94.80;;;;;;4995781;28;20483;-90
2022/12/11 10:41:02;;;;;;;122.63;39.15;;;2.00;94.80;;;;;;4993128;28;20432;-88
2022/12/11 10:43:38;;;;;;;105.75;36.70;;;2.00;94.70;;;;;;4980897;28;20428;-89
2022/12/11 10:46:06;;;;;;;115.03;38.88;;;2.00;94.70;;;;;;4991074;28;20995;-90
2022/12/11 10:48:33;;;;;;;105.65;37.70;;;2.00;94.70;;;;;;4980840;28;20483;-89
2022/12/11 10:51:02;;;;;;;117.43;38.45;;;2.00;94.70;;;;;;5029557;28;20487;-88
2022/12/11 10:53:29;;;;;;;93.25;35.97;;;2.10;94.80;;;;;;5030855;28;20424;-89
2022/12/11 10:55:57;;;;;;;111.93;37.80;;;2.10;94.70;;;;;;4999941;28;20435;-87
2022/12/11 10:58:27;;;;;;;113.55;38.35;;;2.10;94.70;;;;;;4998216;28;20423;-88
2022/12/11 11:01:06;;;;;;;107.90;37.13;;;2.10;94.70;;;;;;4999817;28;20416;-89
2022/12/11 11:03:34;;;;;;;92.97;35.97;;;2.20;94.80;;;;;;4984972;28;20417;-88
2022/12/11 11:06:06;;;;;;;91.18;35.63;;;2.20;94.60;;;;;;4979647;28;20472;-89
2022/12/11 11:08:48;;;;;;;88.15;35.13;;;2.30;94.50;;;;;;4977063;28;20547;-90
2022/12/11 11:11:36;;;;;;;94.32;35.03;;;2.30;94.50;;;;;;4979654;28;20444;-89
2022/12/11 11:14:19;;;;;;;89.03;35.08;;;2.30;94.40;;;;;;4972645;28;20906;-89
2022/12/11 11:16:51;;;;;;;90.65;35.47;;;2.40;94.40;;;;;;4990496;28;20418;-89
2022/12/11 11:19:20;;;;;;;92.20;36.17;;;2.40;94.30;;;;;;4990957;28;20425;-89
2022/12/11 11:22:11;;;;;;;84.83;35.03;;;2.40;94.20;;;;;;4996225;28;21186;-88
2022/12/11 11:24:57;;;;;;;85.60;35.08;;;2.40;94.10;;;;;;4976347;28;20425;-90
2022/12/11 11:27:29;;;;;;;84.70;35.10;;;2.40;94.10;;;;;;4971053;28;20457;-89
2022/12/11 11:30:00;;;;;;;78.55;33.17;;;2.30;94.40;;;;;;5031968;28;20443;-88
2022/12/11 11:32:32;;;;;;;90.28;35.60;;;2.30;94.10;;;;;;4992932;28;20412;-89
2022/12/11 11:35:12;;;;;;;81.55;34.42;;;2.30;94.20;;;;;;4996202;28;20474;-89
2022/12/11 11:37:52;;;;;;;79.43;33.30;;;2.30;94.10;;;;;;4997221;28;20412;-88
2022/12/11 11:40:29;;;;;;;75.22;33.25;;;2.30;94.10;;;;;;4990724;28;20918;-88
2022/12/11 11:43:30;;;;;;;78.10;34.13;;;2.30;94.00;;;;;;4993191;28;20434;-88
2022/12/11 11:45:58;;;;;;;79.17;33.17;;;2.30;94.00;;;;;;4979048;28;20474;-88
2022/12/11 11:48:56;;;;;;;75.43;32.13;;;2.30;94.10;;;;;;5027495;28;20947;-88
2022/12/11 11:51:50;;;;;;;66.18;31.42;;;2.30;94.10;;;;;;5031318;28;20915;-89
2022/12/11 11:54:36;;;;;;;72.15;31.50;;;2.30;93.80;;;;;;4995654;28;20461;-87
2022/12/11 11:57:21;;;;;;;78.25;34.30;;;2.30;94.10;;;;;;4996104;28;20451;-88
2022/12/11 11:59:57;;;;;;;75.93;32.92;;;2.40;94.00;;;;;;4968704;28;20441;-88
2022/12/11 12:02:22;;;;;;;80.60;33.65;;;2.40;94.10;;;;;;4968469;28;20417;-89
2022/12/11 12:04:50;;;;;;;76.68;33.10;;;2.40;94.10;;;;;;4968870;28;20500;-89
2022/12/11 12:07:47;;;;;;;73.75;32.92;;;2.50;94.20;;;;;;4968393;28;21020;-88
2022/12/11 12:10:45;;;;;;;77.70;33.83;;;2.50;94.10;;;;;;4985811;28;20414;-89
2022/12/11 12:13:27;;;;;;;79.90;33.20;;;2.50;94.00;;;;;;4968628;28;21033;-89
2022/12/11 12:15:58;;;;;;;74.82;32.92;;;2.50;94.00;;;;;;4984557;28;20433;-88
2022/12/11 12:18:32;;;;;;;69.03;32.10;;;2.50;94.00;;;;;;4985867;28;20755;-88
2022/12/11 12:21:26;;;;;;;72.05;33.38;;;2.50;93.80;;;;;;4983640;28;20411;-89
2022/12/11 12:24:13;;;;;;;75.85;33.47;;;2.50;93.80;;;;;;4968768;28;20430;-88
2022/12/11 12:26:49;;;;;;;72.17;33.37;;;2.60;93.70;;;;;;4968562;28;20489;-89
2022/12/11 12:29:26;;;;;;;74.63;34.15;;;2.50;93.60;;;;;;4967976;28;20425;-90
2022/12/11 12:32:28;;;;;;;69.50;33.10;;;2.50;93.60;;;;;;4969195;28;20441;-89
2022/12/11 12:35:05;;;;;;;74.03;34.13;;;2.60;93.70;;;;;;4984569;28;20424;-89
2022/12/11 12:37:56;;;;;;;69.50;32.75;;;2.60;93.70;;;;;;4984085;28;20426;-89
2022/12/11 12:40:36;;;;;;;64.57;31.23;;;2.60;93.50;;;;;;4969136;28;20462;-89
2022/12/11 12:43:24;;;;;;;64.20;32.00;;;2.60;93.70;;;;;;4984209;28;20425;-89
2022/12/11 12:46:03;;;;;;;62.35;31.83;;;2.60;93.30;;;;;;4984522;28;20442;-88
2022/12/11 12:48:29;;;;;;;67.72;32.03;;;2.60;93.30;;;;;;4968955;28;20509;-88
2022/12/11 12:50:55;;;;;;;70.13;32.72;;;2.50;93.50;;;;;;4968080;28;20450;-87
2022/12/11 12:53:29;;;;;;;62.08;30.92;;;2.60;93.60;;;;;;4969091;28;20406;-88
2022/12/11 12:55:56;;;;;;;65.00;31.80;;;2.60;93.40;;;;;;4983766;28;20406;-89